Time;durP1;ratioP1;P1;durP2;ratioP2;P2;SDS_P1;SDS_P2;PMS_P1;PMS_P2;Temp;Humidity;BMP_temperature;BMP_pressure;BME280_temperature;BME280_humidity;BME280_pressure;Samples;Min_cycle;Max_cycle;Signal;HPM_P1;HPM_P2
2023/06/11 00:01:08;;;;;;;7.43;6.82;;;;;;;;;;5064744;28;43355;-32
2023/06/11 00:03:36;;;;;;;7.90;7.05;;;;;;;;;;5063762;28;40084;-34
2023/06/11 00:06:05;;;;;;;8.38;7.40;;;;;;;;;;5065064;28;43114;-31
2023/06/11 00:08:33;;;;;;;8.52;7.57;;;;;;;;;;5065633;28;40507;-30
2023/06/11 00:11:02;;;;;;;7.78;7.15;;;;;;;;;;5065174;28;42710;-33
2023/06/11 00:13:30;;;;;;;8.30;7.45;;;;;;;;;;5064754;28;44528;-32
2023/06/11 00:15:59;;;;;;;8.13;7.30;;;;;;;;;;5062288;28;40978;-30
2023/06/11 00:18:27;;;;;;;9.15;7.45;;;;;;;;;;5065107;28;42767;-37
2023/06/11 00:20:56;;;;;;;8.13;7.22;;;;;;;;;;5064340;28;44418;-32
2023/06/11 00:23:24;;;;;;;9.13;7.70;;;;;;;;;;5065039;28;41225;-30
2023/06/11 00:25:53;;;;;;;8.85;7.70;;;;;;;;;;5063695;28;43497;-33
2023/06/11 00:28:22;;;;;;;8.25;7.45;;;;;;;;;;5065054;28;43426;-30
2023/06/11 00:30:50;;;;;;;8.57;7.72;;;;;;;;;;5064737;28;42877;-29
2023/06/11 00:33:18;;;;;;;9.30;8.20;;;;;;;;;;5064236;28;44141;-32
2023/06/11 00:35:46;;;;;;;8.57;7.25;;;;;;;;;;5064940;28;41030;-30
2023/06/11 00:38:15;;;;;;;8.40;7.57;;;;;;;;;;5051568;28;43028;-30
2023/06/11 00:40:47;;;;;;;7.97;7.18;;;;;;;;;;5046674;28;42321;-30
2023/06/11 00:43:17;;;;;;;8.98;7.70;;;;;;;;;;5064470;28;40354;-30
2023/06/11 00:45:47;;;;;;;8.23;7.50;;;;;;;;;;5064179;28;42633;-32
2023/06/11 00:48:15;;;;;;;7.63;6.93;;;;;;;;;;5045638;28;41653;-29
2023/06/11 00:50:47;;;;;;;7.80;7.10;;;;;;;;;;5064940;28;42629;-30
2023/06/11 00:53:15;;;;;;;8.40;6.80;;;;;;;;;;5061482;28;43085;-32
2023/06/11 00:55:44;;;;;;;7.95;7.25;;;;;;;;;;5055507;28;39615;-30
2023/06/11 00:58:14;;;;;;;8.30;7.50;;;;;;;;;;5065362;28;43261;-32
2023/06/11 01:00:43;;;;;;;7.53;6.82;;;;;;;;;;5064384;28;43537;-29
2023/06/11 01:03:17;;;;;;;8.15;7.28;;;;;;;;;;5064087;28;40336;-32
2023/06/11 01:05:47;;;;;;;7.47;6.78;;;;;;;;;;5046818;28;41268;-34
2023/06/11 01:08:16;;;;;;;7.35;6.75;;;;;;;;;;5045194;28;43361;-33
2023/06/11 01:10:47;;;;;;;7.40;6.65;;;;;;;;;;5046949;28;41130;-29
2023/06/11 01:13:15;;;;;;;7.75;7.10;;;;;;;;;;5044755;28;41997;-35
2023/06/11 01:15:43;;;;;;;7.97;7.28;;;;;;;;;;5047629;28;38847;-33
2023/06/11 01:18:12;;;;;;;8.13;7.32;;;;;;;;;;5049368;28;41207;-29
2023/06/11 01:20:41;;;;;;;7.88;7.13;;;;;;;;;;5036326;28;42783;-32
2023/06/11 01:23:15;;;;;;;7.93;7.15;;;;;;;;;;5049225;28;40275;-29
2023/06/11 01:25:46;;;;;;;8.15;7.38;;;;;;;;;;5049076;28;42398;-29
2023/06/11 01:28:16;;;;;;;7.85;7.15;;;;;;;;;;5067522;28;42822;-32
2023/06/11 01:30:47;;;;;;;7.72;7.03;;;;;;;;;;5053417;28;40139;-30
2023/06/11 01:33:15;;;;;;;7.80;7.10;;;;;;;;;;5067464;28;43207;-31
2023/06/11 01:35:48;;;;;;;7.22;6.63;;;;;;;;;;5049750;28;40341;-30
2023/06/11 01:38:17;;;;;;;8.90;7.18;;;;;;;;;;5038343;28;42414;-35
2023/06/11 01:40:49;;;;;;;8.35;7.45;;;;;;;;;;5034716;28;42346;-31
2023/06/11 01:43:19;;;;;;;8.05;7.32;;;;;;;;;;5047653;28;40142;-32
2023/06/11 01:45:47;;;;;;;7.75;7.10;;;;;;;;;;5041544;28;41719;-33
2023/06/11 01:48:15;;;;;;;7.70;7.00;;;;;;;;;;5046000;28;43064;-32
2023/06/11 01:50:43;;;;;;;7.95;7.25;;;;;;;;;;5067481;28;40571;-30
2023/06/11 01:53:12;;;;;;;7.70;7.10;;;;;;;;;;5067509;28;43369;-30
2023/06/11 01:55:42;;;;;;;7.47;6.88;;;;;;;;;;5035179;28;43351;-33
2023/06/11 01:58:11;;;;;;;8.10;7.35;;;;;;;;;;5048130;28;42780;-29
2023/06/11 02:00:41;;;;;;;8.05;7.35;;;;;;;;;;5048462;28;43032;-32
2023/06/11 02:03:09;;;;;;;7.55;6.88;;;;;;;;;;5048517;28;39659;-30
2023/06/11 02:05:38;;;;;;;7.03;6.43;;;;;;;;;;5046737;28;42598;-32
2023/06/11 02:08:06;;;;;;;8.18;7.47;;;;;;;;;;5040218;28;41947;-31
2023/06/11 02:10:33;;;;;;;7.43;6.72;;;;;;;;;;5043288;28;39998;-31
2023/06/11 02:13:01;;;;;;;7.78;7.13;;;;;;;;;;5045713;28;42510;-35
2023/06/11 02:15:30;;;;;;;8.15;7.45;;;;;;;;;;5033908;28;43510;-35
2023/06/11 02:17:59;;;;;;;8.20;7.50;;;;;;;;;;5047803;28;39452;-31
2023/06/11 02:20:27;;;;;;;8.27;7.57;;;;;;;;;;5047861;28;43001;-30
2023/06/11 02:22:55;;;;;;;8.20;7.40;;;;;;;;;;5048350;28;40294;-32
2023/06/11 02:25:23;;;;;;;7.90;7.20;;;;;;;;;;5047346;28;42635;-35
2023/06/11 02:27:54;;;;;;;9.30;7.35;;;;;;;;;;5048133;28;42479;-32
2023/06/11 02:30:22;;;;;;;7.82;7.13;;;;;;;;;;5066464;28;41752;-32
2023/06/11 02:32:50;;;;;;;8.35;7.60;;;;;;;;;;5038268;28;41440;-33
2023/06/11 02:35:20;;;;;;;8.10;7.40;;;;;;;;;;5066232;28;43468;-32
2023/06/11 02:37:48;;;;;;;7.78;7.07;;;;;;;;;;5067571;28;40332;-30
2023/06/11 02:40:16;;;;;;;8.80;7.22;;;;;;;;;;5048302;28;42938;-29
2023/06/11 02:42:44;;;;;;;7.88;7.18;;;;;;;;;;5048837;28;39187;-31
2023/06/11 02:45:12;;;;;;;8.20;7.50;;;;;;;;;;5062105;28;42713;-33
2023/06/11 02:47:41;;;;;;;8.18;7.50;;;;;;;;;;5038895;28;43041;-31
2023/06/11 02:50:10;;;;;;;7.60;7.00;;;;;;;;;;5066127;28;42376;-34
2023/06/11 02:52:39;;;;;;;7.72;7.00;;;;;;;;;;5048225;28;42198;-32
2023/06/11 02:55:08;;;;;;;8.00;7.25;;;;;;;;;;5065698;28;43798;-32
2023/06/11 02:57:36;;;;;;;8.02;7.38;;;;;;;;;;5057933;28;40494;-34
2023/06/11 03:00:05;;;;;;;7.72;7.13;;;;;;;;;;5061298;28;43598;-32
2023/06/11 03:02:33;;;;;;;8.10;7.40;;;;;;;;;;5058562;28;41354;-30
2023/06/11 03:05:01;;;;;;;8.43;7.63;;;;;;;;;;5047896;28;41668;-31
2023/06/11 03:07:30;;;;;;;8.73;7.43;;;;;;;;;;5033005;28;42167;-30
2023/06/11 03:09:59;;;;;;;7.85;7.15;;;;;;;;;;5065889;28;40884;-32
2023/06/11 03:12:27;;;;;;;8.23;7.53;;;;;;;;;;5065764;28;42521;-29
2023/06/11 03:14:55;;;;;;;9.10;7.65;;;;;;;;;;5046412;28;41976;-30
2023/06/11 03:17:23;;;;;;;8.10;7.15;;;;;;;;;;5047424;28;39493;-33
2023/06/11 03:19:51;;;;;;;8.07;7.38;;;;;;;;;;5066798;28;43283;-29
2023/06/11 03:22:19;;;;;;;8.13;7.43;;;;;;;;;;5046379;28;42202;-32
2023/06/11 03:24:47;;;;;;;8.25;7.45;;;;;;;;;;5047797;28;42121;-32
2023/06/11 03:27:28;;;;;;;7.93;7.25;;;;;;;;;;5047360;28;43172;-32
2023/06/11 03:29:56;;;;;;;7.93;7.13;;;;;;;;;;5042770;28;39562;-31
2023/06/11 03:32:23;;;;;;;8.55;7.28;;;;;;;;;;5042358;28;42500;-30
2023/06/11 03:34:52;;;;;;;8.23;7.43;;;;;;;;;;5047588;28;43036;-32
2023/06/11 03:37:22;;;;;;;7.80;7.10;;;;;;;;;;5046335;28;38989;-32
2023/06/11 03:39:54;;;;;;;7.93;7.22;;;;;;;;;;5047446;28;41351;-34
2023/06/11 03:42:23;;;;;;;8.70;7.90;;;;;;;;;;5047029;28;42072;-29
2023/06/11 03:44:53;;;;;;;7.63;6.93;;;;;;;;;;5036743;28;38835;-31
2023/06/11 03:47:23;;;;;;;8.20;7.40;;;;;;;;;;5035291;28;43458;-30
2023/06/11 03:49:51;;;;;;;8.15;7.35;;;;;;;;;;5046406;28;39881;-31
2023/06/11 03:52:20;;;;;;;8.23;6.93;;;;;;;;;;5037362;28;41713;-31
2023/06/11 03:54:48;;;;;;;7.57;6.88;;;;;;;;;;5045197;28;43424;-31
2023/06/11 03:57:17;;;;;;;7.82;7.13;;;;;;;;;;5043437;28;39040;-31
2023/06/11 03:59:46;;;;;;;8.25;7.35;;;;;;;;;;5043870;28;41433;-31
2023/06/11 04:02:15;;;;;;;7.72;7.03;;;;;;;;;;5025991;28;41988;-33
2023/06/11 04:04:44;;;;;;;7.95;7.25;;;;;;;;;;5044934;28;41258;-32
2023/06/11 04:07:12;;;;;;;8.05;7.35;;;;;;;;;;5030684;28;42089;-30
2023/06/11 04:09:41;;;;;;;7.45;6.75;;;;;;;;;;5052835;28;40963;-32
2023/06/11 04:12:09;;;;;;;7.63;6.93;;;;;;;;;;5026288;28;42913;-30
2023/06/11 04:14:37;;;;;;;7.93;7.22;;;;;;;;;;5039194;28;42262;-35
2023/06/11 04:17:06;;;;;;;7.68;7.07;;;;;;;;;;5061417;28;40380;-30
2023/06/11 04:19:35;;;;;;;8.07;7.28;;;;;;;;;;5026678;28;41301;-30
2023/06/11 04:22:03;;;;;;;7.95;7.25;;;;;;;;;;5026721;28;42752;-32
2023/06/11 04:24:31;;;;;;;7.70;7.10;;;;;;;;;;5049704;28;39838;-31
2023/06/11 04:26:59;;;;;;;7.53;6.68;;;;;;;;;;5031911;28;41463;-32
2023/06/11 04:29:29;;;;;;;7.88;7.18;;;;;;;;;;5049772;28;44031;-30
2023/06/11 04:32:03;;;;;;;7.78;7.10;;;;;;;;;;5035524;28;41318;-29
2023/06/11 04:34:33;;;;;;;8.20;7.22;;;;;;;;;;5036490;28;42992;-32
2023/06/11 04:37:04;;;;;;;8.45;7.65;;;;;;;;;;5051540;28;40771;-33
2023/06/11 04:39:33;;;;;;;8.00;7.22;;;;;;;;;;5030109;28;41115;-30
2023/06/11 04:42:02;;;;;;;7.05;6.45;;;;;;;;;;5033161;28;44376;-35
2023/06/11 04:44:31;;;;;;;8.02;7.32;;;;;;;;;;5026524;28;39398;-31
2023/06/11 04:47:05;;;;;;;7.65;6.93;;;;;;;;;;5031835;28;42223;-32
2023/06/11 04:49:34;;;;;;;6.97;6.38;;;;;;;;;;5047587;28;41928;-32
2023/06/11 04:52:04;;;;;;;8.02;7.32;;;;;;;;;;5064184;28;40489;-31
2023/06/11 04:54:32;;;;;;;8.35;7.55;;;;;;;;;;5058966;28;43570;-31
2023/06/11 04:57:03;;;;;;;7.97;7.28;;;;;;;;;;5049834;28;38757;-30
2023/06/11 04:59:32;;;;;;;7.70;7.10;;;;;;;;;;5043957;28;41205;-30
2023/06/11 05:02:01;;;;;;;8.02;7.22;;;;;;;;;;5046540;28;42954;-36
2023/06/11 05:04:29;;;;;;;7.90;7.30;;;;;;;;;;5049688;28;40463;-32
2023/06/11 05:07:00;;;;;;;8.40;7.60;;;;;;;;;;5048732;28;41410;-31
2023/06/11 05:09:30;;;;;;;7.53;6.82;;;;;;;;;;5049632;28;41978;-31
2023/06/11 05:11:58;;;;;;;7.65;6.97;;;;;;;;;;5050082;28;39527;-35
2023/06/11 05:14:27;;;;;;;7.32;6.63;;;;;;;;;;5048739;28;42433;-39
2023/06/11 05:16:55;;;;;;;7.85;7.05;;;;;;;;;;5049616;28;39782;-32
2023/06/11 05:19:23;;;;;;;8.10;7.40;;;;;;;;;;5049434;28;41391;-30
2023/06/11 05:21:51;;;;;;;7.95;7.15;;;;;;;;;;5035384;28;42326;-34
2023/06/11 05:24:20;;;;;;;8.02;7.32;;;;;;;;;;5048786;28;38926;-32
2023/06/11 05:26:56;;;;;;;7.18;6.60;;;;;;;;;;5050382;28;42265;-36
2023/06/11 05:29:25;;;;;;;7.40;6.70;;;;;;;;;;5046396;28;43096;-30
2023/06/11 05:31:56;;;;;;;7.90;7.20;;;;;;;;;;5039241;28;39447;-30
2023/06/11 05:34:25;;;;;;;8.07;7.38;;;;;;;;;;5038353;28;43282;-31
2023/06/11 05:36:56;;;;;;;7.25;6.63;;;;;;;;;;5033283;28;39254;-33
2023/06/11 05:39:24;;;;;;;7.93;7.25;;;;;;;;;;5029383;28;41195;-33
2023/06/11 05:41:52;;;;;;;8.02;7.32;;;;;;;;;;5029178;28;41903;-30
2023/06/11 05:44:24;;;;;;;8.02;7.22;;;;;;;;;;5027918;28;39923;-32
2023/06/11 05:46:52;;;;;;;7.72;7.03;;;;;;;;;;5033628;28;42685;-32
2023/06/11 05:49:21;;;;;;;8.52;7.72;;;;;;;;;;5029793;28;42066;-31
2023/06/11 05:51:49;;;;;;;9.20;7.28;;;;;;;;;;5029603;28;40177;-32
2023/06/11 05:54:17;;;;;;;8.13;7.43;;;;;;;;;;5034819;28;42272;-34
2023/06/11 05:56:46;;;;;;;7.90;7.07;;;;;;;;;;5041302;28;41967;-35
2023/06/11 05:59:14;;;;;;;7.50;6.68;;;;;;;;;;5032495;28;41483;-30
2023/06/11 06:01:45;;;;;;;7.32;6.72;;;;;;;;;;5039222;28;42083;-31
2023/06/11 06:04:16;;;;;;;9.07;7.32;;;;;;;;;;5027962;28;39669;-31
2023/06/11 06:06:45;;;;;;;8.00;7.30;;;;;;;;;;5029557;28;41393;-31
2023/06/11 06:09:14;;;;;;;7.78;7.15;;;;;;;;;;5028809;28;43782;-30
2023/06/11 06:11:43;;;;;;;7.60;6.90;;;;;;;;;;5028852;28;40388;-32
2023/06/11 06:14:11;;;;;;;7.85;7.05;;;;;;;;;;5028527;28;42241;-34
2023/06/11 06:16:40;;;;;;;7.35;6.75;;;;;;;;;;5029636;28;42229;-33
2023/06/11 06:19:14;;;;;;;7.70;7.00;;;;;;;;;;5027666;28;42114;-33
2023/06/11 06:21:42;;;;;;;7.78;7.07;;;;;;;;;;5046933;28;44798;-29
2023/06/11 06:24:10;;;;;;;8.32;7.63;;;;;;;;;;5046642;28;40490;-32
2023/06/11 06:26:40;;;;;;;8.43;7.68;;;;;;;;;;5038886;28;42638;-31
2023/06/11 06:29:09;;;;;;;9.52;7.45;;;;;;;;;;5029588;28;41861;-32
2023/06/11 06:31:37;;;;;;;11.15;7.88;;;;;;;;;;5055971;28;39828;-29
2023/06/11 06:34:07;;;;;;;12.07;8.50;;;;;;;;;;5039031;28;44716;-31
2023/06/11 06:36:38;;;;;;;10.93;8.50;;;;;;;;;;5037311;28;43317;-30
2023/06/11 06:39:07;;;;;;;11.82;8.77;;;;;;;;;;5042809;28;39091;-30
2023/06/11 06:41:36;;;;;;;9.52;8.38;;;;;;;;;;5040604;28;42286;-31
2023/06/11 06:44:09;;;;;;;12.20;8.05;;;;;;;;;;5029882;28;38372;-30
2023/06/11 06:46:37;;;;;;;10.68;7.85;;;;;;;;;;5049432;28;42179;-29
2023/06/11 06:49:05;;;;;;;13.23;8.02;;;;;;;;;;5047555;28;41923;-30
2023/06/11 06:51:33;;;;;;;10.45;7.60;;;;;;;;;;5053530;28;41409;-30
2023/06/11 06:54:03;;;;;;;8.85;7.75;;;;;;;;;;5030955;28;41520;-29
2023/06/11 06:56:31;;;;;;;8.68;7.88;;;;;;;;;;5035646;28;42588;-30
2023/06/11 06:58:58;;;;;;;9.23;8.32;;;;;;;;;;5030643;28;41263;-30
2023/06/11 07:01:27;;;;;;;10.00;7.65;;;;;;;;;;5034487;28;41145;-31
2023/06/11 07:03:55;;;;;;;9.45;8.45;;;;;;;;;;5049614;28;34038;-30
2023/06/11 07:06:24;;;;;;;8.57;7.70;;;;;;;;;;5027567;28;41956;-30
2023/06/11 07:08:53;;;;;;;8.88;8.02;;;;;;;;;;5029560;28;42235;-29
2023/06/11 07:11:24;;;;;;;8.40;7.63;;;;;;;;;;5037209;28;38666;-29
2023/06/11 07:13:52;;;;;;;10.35;7.38;;;;;;;;;;5027665;28;42372;-32
2023/06/11 07:16:20;;;;;;;10.65;7.70;;;;;;;;;;5027087;28;41822;-29
2023/06/11 07:18:54;;;;;;;8.77;7.93;;;;;;;;;;5031842;28;39147;-29
2023/06/11 07:21:23;;;;;;;9.32;8.43;;;;;;;;;;5026895;28;41577;-32
2023/06/11 07:23:51;;;;;;;8.88;8.05;;;;;;;;;;5028585;28;42210;-29
2023/06/11 07:26:20;;;;;;;9.90;9.00;;;;;;;;;;5036777;28;42324;-29
2023/06/11 07:28:50;;;;;;;9.75;8.70;;;;;;;;;;5035909;28;42252;-30
2023/06/11 07:31:19;;;;;;;11.82;8.57;;;;;;;;;;5030281;28;38679;-29
2023/06/11 07:33:49;;;;;;;9.57;8.55;;;;;;;;;;5027778;28;42656;-31
2023/06/11 07:36:18;;;;;;;10.65;8.38;;;;;;;;;;5026523;28;41902;-30
2023/06/11 07:38:46;;;;;;;10.60;8.55;;;;;;;;;;5034571;28;38922;-30
2023/06/11 07:41:16;;;;;;;9.23;8.40;;;;;;;;;;5028560;28;42187;-33
2023/06/11 07:43:45;;;;;;;12.25;8.27;;;;;;;;;;5042946;28;41850;-29
2023/06/11 07:46:16;;;;;;;10.15;8.70;;;;;;;;;;5039439;28;40310;-29
2023/06/11 07:48:44;;;;;;;13.25;8.07;;;;;;;;;;5055464;28;43791;-29
2023/06/11 07:51:14;;;;;;;12.07;8.02;;;;;;;;;;5057645;28;41448;-30
2023/06/11 07:53:47;;;;;;;9.50;7.93;;;;;;;;;;5041990;28;43064;-30
2023/06/11 07:56:15;;;;;;;10.20;8.55;;;;;;;;;;5062099;28;43239;-30
2023/06/11 07:58:43;;;;;;;12.68;8.43;;;;;;;;;;5054827;28;40724;-30
2023/06/11 08:01:11;;;;;;;10.68;8.30;;;;;;;;;;5054116;28;43575;-32
2023/06/11 08:03:41;;;;;;;9.93;8.13;;;;;;;;;;5053170;28;43008;-30
2023/06/11 08:06:10;;;;;;;8.93;8.10;;;;;;;;;;5050888;28;40343;-30
2023/06/11 08:08:38;;;;;;;12.40;9.10;;;;;;;;;;5054927;28;44487;-30
2023/06/11 08:11:06;;;;;;;8.73;7.80;;;;;;;;;;5049200;28;40124;-29
2023/06/11 08:13:34;;;;;;;8.35;7.65;;;;;;;;;;5052473;28;42973;-29
2023/06/11 08:16:03;;;;;;;8.95;7.95;;;;;;;;;;5045293;28;43687;-31
2023/06/11 08:18:31;;;;;;;9.27;8.20;;;;;;;;;;5043900;28;41489;-32
2023/06/11 08:21:02;;;;;;;8.38;7.68;;;;;;;;;;5054029;28;43893;-31
2023/06/11 08:23:30;;;;;;;8.73;7.88;;;;;;;;;;5065364;28;43635;-30
2023/06/11 08:26:02;;;;;;;10.50;8.35;;;;;;;;;;5052147;28;40452;-30
2023/06/11 08:28:30;;;;;;;10.07;7.95;;;;;;;;;;5047941;28;42858;-32
2023/06/11 08:30:58;;;;;;;8.93;7.95;;;;;;;;;;5064146;28;43642;-33
2023/06/11 08:33:26;;;;;;;8.73;7.75;;;;;;;;;;5045356;28;42969;-31
2023/06/11 08:35:54;;;;;;;9.82;7.57;;;;;;;;;;5045720;28;43154;-30
2023/06/11 08:38:24;;;;;;;11.13;8.30;;;;;;;;;;5048449;28;41030;-29
2023/06/11 08:40:52;;;;;;;8.40;7.53;;;;;;;;;;5062713;28;42473;-29
2023/06/11 08:43:20;;;;;;;8.55;7.78;;;;;;;;;;5061111;28;44015;-32
2023/06/11 08:45:51;;;;;;;8.95;8.10;;;;;;;;;;5055537;28;40461;-32
2023/06/11 08:48:19;;;;;;;8.98;8.05;;;;;;;;;;5055879;28;42385;-31
2023/06/11 08:50:48;;;;;;;8.63;7.93;;;;;;;;;;5052678;28;44115;-30
2023/06/11 08:53:16;;;;;;;8.45;7.75;;;;;;;;;;5053600;28;41390;-30
2023/06/11 08:55:46;;;;;;;12.55;8.13;;;;;;;;;;5050311;28;43457;-30
2023/06/11 08:58:14;;;;;;;9.02;8.13;;;;;;;;;;5051132;28;40776;-29
2023/06/11 09:00:42;;;;;;;10.90;8.18;;;;;;;;;;5057092;28;42514;-34
2023/06/11 09:03:15;;;;;;;8.73;7.25;;;;;;;;;;5055621;28;43833;-32
2023/06/11 09:05:43;;;;;;;8.95;7.60;;;;;;;;;;5046764;28;40212;-31
2023/06/11 09:08:11;;;;;;;9.80;7.90;;;;;;;;;;5047690;28;42690;-32
2023/06/11 09:10:49;;;;;;;8.75;7.95;;;;;;;;;;5055435;28;43775;-29
2023/06/11 09:13:18;;;;;;;10.93;7.53;;;;;;;;;;5058647;28;40583;-30
2023/06/11 09:15:49;;;;;;;7.95;7.25;;;;;;;;;;5040451;28;40973;-29
2023/06/11 09:18:22;;;;;;;8.15;7.38;;;;;;;;;;5050340;28;41454;-32
2023/06/11 09:20:51;;;;;;;8.10;7.28;;;;;;;;;;5046817;28;43347;-29
2023/06/11 09:23:28;;;;;;;8.77;7.88;;;;;;;;;;5046918;28;43462;-32
2023/06/11 09:26:00;;;;;;;8.30;7.47;;;;;;;;;;5044534;28;41298;-31
2023/06/11 09:28:29;;;;;;;8.95;8.00;;;;;;;;;;5047372;28;42740;-31
2023/06/11 09:30:57;;;;;;;8.55;7.57;;;;;;;;;;5055640;28;43544;-30
2023/06/11 09:33:25;;;;;;;8.65;7.85;;;;;;;;;;5057134;28;41319;-29
2023/06/11 09:35:53;;;;;;;8.00;7.30;;;;;;;;;;5055587;28;43316;-29
2023/06/11 09:38:21;;;;;;;7.47;6.68;;;;;;;;;;5066572;28;40312;-32
2023/06/11 09:40:50;;;;;;;9.57;7.30;;;;;;;;;;5065761;28;43631;-32
2023/06/11 09:43:21;;;;;;;7.88;7.10;;;;;;;;;;5056154;28;43457;-29
2023/06/11 09:45:52;;;;;;;8.18;7.28;;;;;;;;;;5049677;28;40300;-30
2023/06/11 09:48:20;;;;;;;7.97;7.18;;;;;;;;;;5061463;28;42664;-29
2023/06/11 09:50:49;;;;;;;8.32;7.60;;;;;;;;;;5056173;28;43684;-33
2023/06/11 09:53:18;;;;;;;8.82;7.47;;;;;;;;;;5047551;28;41473;-31
2023/06/11 09:55:46;;;;;;;7.72;7.03;;;;;;;;;;5050463;28;42912;-29
2023/06/11 09:58:34;;;;;;;7.25;6.65;;;;;;;;;;5050988;28;44518;-34
2023/06/11 10:01:02;;;;;;;7.93;6.78;;;;;;;;;;5047608;28;42917;-31
2023/06/11 10:03:37;;;;;;;8.00;6.82;;;;;;;;;;5055673;28;46342;-33
2023/06/11 10:06:07;;;;;;;7.28;6.50;;;;;;;;;;5052959;28;41394;-30
2023/06/11 10:08:35;;;;;;;8.18;6.68;;;;;;;;;;5043033;28;42808;-30
2023/06/11 10:11:03;;;;;;;7.43;6.15;;;;;;;;;;5056920;28;43519;-30
2023/06/11 10:13:31;;;;;;;7.70;7.00;;;;;;;;;;5051877;28;40086;-31
2023/06/11 10:16:01;;;;;;;7.28;6.57;;;;;;;;;;5053948;28;43778;-32
2023/06/11 10:18:30;;;;;;;7.43;6.72;;;;;;;;;;5051778;28;43289;-34
2023/06/11 10:20:58;;;;;;;7.57;6.97;;;;;;;;;;5052740;28;40539;-29
2023/06/11 10:23:34;;;;;;;7.90;7.20;;;;;;;;;;5027774;28;43959;-32
2023/06/11 10:26:02;;;;;;;8.07;7.28;;;;;;;;;;5029214;28;38213;-32
2023/06/11 10:28:37;;;;;;;7.78;7.10;;;;;;;;;;5065519;28;43427;-30
2023/06/11 10:31:06;;;;;;;7.40;6.68;;;;;;;;;;5050367;28;44161;-29
2023/06/11 10:33:42;;;;;;;7.30;6.60;;;;;;;;;;5060898;28;38562;-31
2023/06/11 10:36:10;;;;;;;6.97;6.38;;;;;;;;;;5062886;28;43582;-38
2023/06/11 10:38:38;;;;;;;7.28;6.68;;;;;;;;;;5058244;28;43411;-39
2023/06/11 10:41:06;;;;;;;7.05;6.43;;;;;;;;;;5049332;28;40452;-37
2023/06/11 10:43:36;;;;;;;7.95;7.25;;;;;;;;;;5047372;28;43365;-39
2023/06/11 10:46:06;;;;;;;7.47;6.75;;;;;;;;;;5045915;28;40727;-36
2023/06/11 10:48:36;;;;;;;7.38;6.68;;;;;;;;;;5064061;28;42016;-39
2023/06/11 10:51:05;;;;;;;7.57;6.95;;;;;;;;;;5067258;28;43579;-34
2023/06/11 10:53:36;;;;;;;7.32;6.72;;;;;;;;;;5066329;28;40243;-37
2023/06/11 10:56:04;;;;;;;7.10;6.50;;;;;;;;;;5066439;28;42176;-36
2023/06/11 10:58:32;;;;;;;7.32;6.63;;;;;;;;;;5059117;28;44181;-38
2023/06/11 11:01:00;;;;;;;7.63;7.03;;;;;;;;;;5053546;28;40079;-36
2023/06/11 11:03:30;;;;;;;7.63;6.93;;;;;;;;;;5061513;28;43398;-37
2023/06/11 11:06:00;;;;;;;8.75;7.88;;;;;;;;;;5056182;28;45807;-37
2023/06/11 11:08:27;;;;;;;8.75;7.80;;;;;;;;;;5046318;28;43562;-41
2023/06/11 11:10:56;;;;;;;10.10;8.07;;;;;;;;;;5046831;28;43864;-37
2023/06/11 11:13:23;;;;;;;9.30;8.40;;;;;;;;;;5044994;28;40084;-37
2023/06/11 11:15:51;;;;;;;13.20;8.55;;;;;;;;;;5054386;28;42330;-41
2023/06/11 11:18:19;;;;;;;11.85;8.68;;;;;;;;;;5057029;28;42796;-34
2023/06/11 11:20:47;;;;;;;9.05;8.20;;;;;;;;;;5056724;28;40363;-38
2023/06/11 11:23:16;;;;;;;9.38;8.55;;;;;;;;;;5061181;28;42847;-40
2023/06/11 11:25:44;;;;;;;9.35;8.55;;;;;;;;;;5061615;28;43140;-38
2023/06/11 11:28:12;;;;;;;9.38;8.52;;;;;;;;;;5045634;28;42787;-39
2023/06/11 11:30:40;;;;;;;9.25;8.35;;;;;;;;;;5047842;28;43273;-40
2023/06/11 11:33:08;;;;;;;9.65;8.70;;;;;;;;;;5046119;28;42310;-37
2023/06/11 11:35:45;;;;;;;9.88;8.93;;;;;;;;;;5045192;28;42467;-35
2023/06/11 11:38:13;;;;;;;8.98;8.18;;;;;;;;;;5042989;28;43255;-39
2023/06/11 11:40:42;;;;;;;9.48;8.27;;;;;;;;;;5046234;28;40976;-37
2023/06/11 11:43:11;;;;;;;10.38;8.55;;;;;;;;;;5045398;28;42598;-35
2023/06/11 11:45:39;;;;;;;9.30;8.40;;;;;;;;;;5048828;28;43916;-41
2023/06/11 11:48:07;;;;;;;8.07;7.38;;;;;;;;;;5059455;28;40199;-36
2023/06/11 11:50:36;;;;;;;9.27;8.45;;;;;;;;;;5065879;28;43533;-41
2023/06/11 11:53:05;;;;;;;9.05;8.10;;;;;;;;;;5065577;28;40286;-38
2023/06/11 11:55:34;;;;;;;8.90;8.10;;;;;;;;;;5064899;28;42684;-39
2023/06/11 11:58:07;;;;;;;8.57;7.78;;;;;;;;;;5066183;28;43650;-35
2023/06/11 12:00:35;;;;;;;8.38;7.57;;;;;;;;;;5052830;28;40928;-37
2023/06/11 12:03:06;;;;;;;8.80;8.00;;;;;;;;;;5064542;28;43182;-35
2023/06/11 12:05:35;;;;;;;8.45;7.75;;;;;;;;;;5065513;28;43282;-37
2023/06/11 12:08:03;;;;;;;8.40;7.60;;;;;;;;;;5065623;28;40550;-36
2023/06/11 12:10:31;;;;;;;8.98;8.15;;;;;;;;;;5065674;28;42776;-34
2023/06/11 12:12:59;;;;;;;8.85;7.95;;;;;;;;;;5066603;28;41423;-39
2023/06/11 12:15:29;;;;;;;8.70;7.95;;;;;;;;;;5065176;28;42043;-39
2023/06/11 12:17:57;;;;;;;8.63;7.20;;;;;;;;;;5064813;28;43590;-40
2023/06/11 12:20:24;;;;;;;7.97;7.28;;;;;;;;;;5064781;28;40514;-36
2023/06/11 12:22:52;;;;;;;8.35;7.55;;;;;;;;;;5065307;28;42756;-35
2023/06/11 12:25:20;;;;;;;8.10;7.40;;;;;;;;;;5056897;28;44125;-36
2023/06/11 12:27:48;;;;;;;8.80;7.90;;;;;;;;;;5051461;28;41367;-35
2023/06/11 12:30:16;;;;;;;8.40;7.70;;;;;;;;;;5051184;28;42773;-36
2023/06/11 12:32:46;;;;;;;10.15;7.85;;;;;;;;;;5047470;28;43640;-35
2023/06/11 12:35:14;;;;;;;11.90;7.47;;;;;;;;;;5053706;28;43627;-33
2023/06/11 12:37:42;;;;;;;8.73;7.75;;;;;;;;;;5050436;28;43552;-36
2023/06/11 12:40:11;;;;;;;8.35;7.55;;;;;;;;;;5059329;28;41181;-34
2023/06/11 12:42:39;;;;;;;13.32;7.90;;;;;;;;;;5057454;28;43895;-35
2023/06/11 12:45:08;;;;;;;8.48;7.50;;;;;;;;;;5052413;28;43278;-32
2023/06/11 12:47:36;;;;;;;11.00;7.47;;;;;;;;;;5053431;28;41993;-37
2023/06/11 12:50:06;;;;;;;8.70;7.80;;;;;;;;;;5051914;28;41752;-36
2023/06/11 12:52:35;;;;;;;8.23;7.43;;;;;;;;;;5051656;28;42977;-38
2023/06/11 12:55:03;;;;;;;8.75;7.85;;;;;;;;;;5050712;28;40306;-33
2023/06/11 12:57:31;;;;;;;9.48;7.72;;;;;;;;;;5051454;28;43738;-32
2023/06/11 12:59:59;;;;;;;8.52;7.68;;;;;;;;;;5050293;28;40397;-37
2023/06/11 13:02:27;;;;;;;8.18;7.38;;;;;;;;;;5055724;28;42841;-36
2023/06/11 13:04:55;;;;;;;10.00;7.63;;;;;;;;;;5055500;28;43550;-34
2023/06/11 13:07:25;;;;;;;8.40;7.65;;;;;;;;;;5050183;28;40842;-39
2023/06/11 13:09:53;;;;;;;9.00;8.10;;;;;;;;;;5055169;28;43113;-33
2023/06/11 13:12:21;;;;;;;8.00;7.28;;;;;;;;;;5057738;28;43518;-34
2023/06/11 13:14:49;;;;;;;8.10;7.40;;;;;;;;;;5057014;28;40655;-36
2023/06/11 13:17:17;;;;;;;8.10;7.30;;;;;;;;;;5057179;28;42533;-31
2023/06/11 13:19:45;;;;;;;10.23;8.10;;;;;;;;;;5056860;28;40549;-36
2023/06/11 13:22:15;;;;;;;9.18;7.38;;;;;;;;;;5036510;28;41258;-35
2023/06/11 13:24:49;;;;;;;8.15;7.38;;;;;;;;;;5053600;28;43709;-34
2023/06/11 13:27:17;;;;;;;7.75;6.97;;;;;;;;;;5058179;28;39874;-34
2023/06/11 13:29:45;;;;;;;8.40;7.28;;;;;;;;;;5060692;28;44332;-36
2023/06/11 13:32:13;;;;;;;8.35;7.65;;;;;;;;;;5059442;28;43515;-36
2023/06/11 13:34:41;;;;;;;8.18;7.38;;;;;;;;;;5055064;28;40122;-34
2023/06/11 13:37:09;;;;;;;7.53;6.82;;;;;;;;;;5058986;28;42721;-34
2023/06/11 13:39:37;;;;;;;8.35;7.35;;;;;;;;;;5057733;28;39836;-34
2023/06/11 13:42:07;;;;;;;8.20;7.50;;;;;;;;;;5056109;28;43647;-36
2023/06/11 13:44:35;;;;;;;9.43;7.15;;;;;;;;;;5054425;28;44389;-33
2023/06/11 13:47:03;;;;;;;11.15;7.47;;;;;;;;;;5055245;28;40599;-32
2023/06/11 13:49:31;;;;;;;13.23;8.13;;;;;;;;;;5056755;28;43490;-34
2023/06/11 13:52:00;;;;;;;7.65;6.90;;;;;;;;;;5052687;28;43509;-37
2023/06/11 13:54:28;;;;;;;9.02;6.90;;;;;;;;;;5058507;28;41326;-37
2023/06/11 13:56:57;;;;;;;8.05;7.28;;;;;;;;;;5055775;28;42757;-37
2023/06/11 13:59:26;;;;;;;8.43;7.63;;;;;;;;;;5056803;28;44166;-35
2023/06/11 14:01:55;;;;;;;8.32;7.53;;;;;;;;;;5055066;28;41719;-37
2023/06/11 14:04:23;;;;;;;9.00;6.97;;;;;;;;;;5056743;28;43619;-38
2023/06/11 14:06:51;;;;;;;8.40;7.60;;;;;;;;;;5056877;28;41433;-35
2023/06/11 14:09:19;;;;;;;8.38;7.30;;;;;;;;;;5052755;28;43671;-38
2023/06/11 14:11:47;;;;;;;8.35;7.55;;;;;;;;;;5058212;28;43652;-33
2023/06/11 14:14:15;;;;;;;9.27;7.47;;;;;;;;;;5056038;28;40372;-34
2023/06/11 14:16:44;;;;;;;8.75;7.85;;;;;;;;;;5059697;28;43396;-37
2023/06/11 14:19:12;;;;;;;8.05;7.35;;;;;;;;;;5055609;28;43710;-34
2023/06/11 14:21:40;;;;;;;8.40;7.60;;;;;;;;;;5050247;28;40264;-33
2023/06/11 14:24:09;;;;;;;9.10;8.02;;;;;;;;;;5047259;28;43105;-34
2023/06/11 14:26:37;;;;;;;10.32;7.40;;;;;;;;;;5054852;28;42180;-35
2023/06/11 14:29:05;;;;;;;14.18;7.55;;;;;;;;;;5048977;28;42707;-36
2023/06/11 14:31:34;;;;;;;12.02;7.88;;;;;;;;;;5039921;28;43237;-36
2023/06/11 14:34:04;;;;;;;8.73;7.95;;;;;;;;;;5039475;28;39822;-37
2023/06/11 14:36:31;;;;;;;8.35;7.65;;;;;;;;;;5051441;28;42769;-34
2023/06/11 14:38:59;;;;;;;7.88;7.20;;;;;;;;;;5053438;28;43145;-34
2023/06/11 14:41:27;;;;;;;8.82;7.90;;;;;;;;;;5058110;28;40664;-34
2023/06/11 14:43:55;;;;;;;8.18;7.38;;;;;;;;;;5058782;28;45023;-34
2023/06/11 14:46:23;;;;;;;8.93;7.55;;;;;;;;;;5054976;28;40318;-40
2023/06/11 14:48:51;;;;;;;8.15;7.43;;;;;;;;;;5057363;28;43207;-36
2023/06/11 14:51:22;;;;;;;8.52;7.72;;;;;;;;;;5055997;28;42439;-33